DIPPU VNPL-VNPL

Flight info

Callsign DIPPU
Flight time 0h 10m
Altitude 14500
Route VFR
Aircraft BE58/L-S/S

Departure

Time 2026-05-07 19:58
Airport Phaplu Airport (VNPL)

Arrival

Time 2026-05-07 20:08
Airport Phaplu Airport (VNPL)
Time Latitude Longitude Altitude Speed Heading
2026-05-07 19:50 27.51723 86.58418 8085 ft 0 kts 21°
2026-05-07 19:53 27.51721 86.58432 8087 ft 4 kts 133°
2026-05-07 19:53 27.51722 86.58475 8081 ft 10 kts 28°
2026-05-07 19:53 27.51816 86.58519 8071 ft 19 kts 23°
2026-05-07 19:54 27.51956 86.58584 8061 ft 24 kts 21°
2026-05-07 19:54 27.52074 86.58623 8051 ft 0 kts 17°
2026-05-07 19:54 27.52073 86.58623 8051 ft 0 kts 17°
2026-05-07 19:56 27.52076 86.58625 8051 ft 2 kts 46°
2026-05-07 19:56 27.52061 86.58633 8053 ft 4 kts 207°
2026-05-07 19:56 27.52051 86.58629 8050 ft 0 kts 200°
2026-05-07 19:57 27.52025 86.58618 8055 ft 24 kts 201°
2026-05-07 19:57 27.51676 86.58455 8087 ft 81 kts 202°
2026-05-07 19:58 27.51035 86.58153 8102 ft 120 kts 204°
2026-05-07 19:58 27.50201 86.57760 8390 ft 132 kts 201°
2026-05-07 19:58 27.49335 86.57396 8774 ft 134 kts 200°
2026-05-07 19:58 27.48420 86.57316 9126 ft 139 kts 155°
2026-05-07 19:59 27.47865 86.58164 9572 ft 140 kts 96°
2026-05-07 19:59 27.48301 86.59141 9784 ft 158 kts 28°
2026-05-07 19:59 27.49389 86.59557 9933 ft 175 kts 18°
2026-05-07 19:59 27.50589 86.59958 9987 ft 191 kts 17°
2026-05-07 20:00 27.51936 86.60398 9997 ft 205 kts 18°
2026-05-07 20:00 27.53318 86.60848 10039 ft 208 kts 16°
2026-05-07 20:00 27.54517 86.61052 11256 ft 151 kts
2026-05-07 20:00 27.55640 86.61090 11516 ft 171 kts
2026-05-07 20:01 27.56860 86.61442 11540 ft 191 kts 20°
2026-05-07 20:01 27.58163 86.61982 11568 ft 205 kts 21°
2026-05-07 20:01 27.59544 86.62558 11515 ft 216 kts 21°
2026-05-07 20:01 27.60984 86.63136 11503 ft 223 kts 19°
2026-05-07 20:02 27.62464 86.63681 11506 ft 227 kts 19°
2026-05-07 20:02 27.63642 86.64610 12112 ft 199 kts 66°
2026-05-07 20:02 27.63484 86.66100 12217 ft 199 kts 129°
2026-05-07 20:02 27.62341 86.67056 11924 ft 220 kts 162°
2026-05-07 20:03 27.60763 86.67111 11568 ft 235 kts 195°
2026-05-07 20:03 27.59256 86.66428 11396 ft 238 kts 205°
2026-05-07 20:03 27.57786 86.65599 11295 ft 234 kts 207°
2026-05-07 20:03 27.56337 86.64799 11263 ft 230 kts 198°
2026-05-07 20:04 27.54768 86.64503 11215 ft 227 kts 186°
2026-05-07 20:04 27.53206 86.64337 11189 ft 224 kts 185°
2026-05-07 20:04 27.51652 86.64211 11178 ft 224 kts 184°
2026-05-07 20:04 27.50104 86.64100 11177 ft 219 kts 184°
2026-05-07 20:05 27.48630 86.63963 11161 ft 207 kts 193°
2026-05-07 20:05 27.47459 86.63146 11171 ft 199 kts 231°
2026-05-07 20:05 27.47022 86.61719 11156 ft 195 kts 269°
2026-05-07 20:05 27.47153 86.60226 11142 ft 190 kts 277°
2026-05-07 20:06 27.47554 86.58830 11153 ft 189 kts 304°
2026-05-07 20:06 27.48575 86.57932 10797 ft 191 kts 338°
2026-05-07 20:06 27.49921 86.57667 10190 ft 201 kts 359°
2026-05-07 20:06 27.51330 86.57784 9647 ft 201 kts
2026-05-07 20:07 27.52686 86.57980 9291 ft 191 kts
2026-05-07 20:07 27.53766 86.58570 9111 ft 159 kts 58°
2026-05-07 20:07 27.53720 86.59543 8853 ft 121 kts 143°
2026-05-07 20:07 27.53002 86.59534 8435 ft 112 kts 227°
2026-05-07 20:08 27.52484 86.58871 8069 ft 112 kts 208°
2026-05-07 20:08 27.51795 86.58513 8077 ft 93 kts 204°
2026-05-07 20:08 27.51518 86.58368 8103 ft 2 kts 324°
2026-05-07 20:08 27.51549 86.58389 8102 ft 10 kts 26°
2026-05-07 20:09 27.51643 86.58436 8092 ft 20 kts 24°
2026-05-07 20:09 27.51743 86.58443 8082 ft 11 kts 349°
2026-05-07 20:09 27.51742 86.58427 8081 ft 0 kts 202°